createdAt,value
2019-04-22T00:02:09.564Z,7.87
2019-04-22T00:04:52.561Z,8.48
2019-04-22T00:07:39.867Z,8.60
2019-04-22T00:10:09.656Z,8.07
2019-04-22T00:12:45.451Z,7.83
2019-04-22T00:15:03.728Z,7.47
2019-04-22T00:17:45.414Z,7.07
2019-04-22T00:20:14.391Z,7.53
2019-04-22T00:22:44.648Z,8.57
2019-04-22T00:25:24.479Z,5.83
2019-04-22T00:27:48.970Z,7.47
2019-04-22T00:30:32.544Z,7.97
2019-04-22T00:33:02.868Z,8.40
2019-04-22T00:35:29.218Z,8.23
2019-04-22T00:40:39.680Z,6.33
2019-04-22T00:43:04.954Z,9.17
2019-04-22T00:48:17.733Z,7.40
2019-04-22T00:50:49.627Z,9.53
2019-04-22T00:53:23.978Z,9.37
2019-04-22T00:56:11.281Z,9.68
2019-04-22T00:58:47.039Z,7.43
2019-04-22T01:04:05.162Z,8.43
2019-04-22T01:06:21.457Z,6.57
2019-04-22T01:13:55.917Z,5.93
2019-04-22T01:19:01.615Z,6.87
2019-04-22T01:21:36.376Z,7.90
2019-04-22T01:23:57.572Z,7.30
2019-04-22T01:26:33.146Z,5.55
2019-04-22T01:28:59.242Z,7.27
2019-04-22T01:31:20.292Z,5.80
2019-04-22T01:34:02.932Z,6.27
2019-04-22T01:36:38.810Z,6.40
2019-04-22T01:39:18.680Z,6.83
2019-04-22T01:41:55.383Z,11.40
2019-04-22T01:46:50.679Z,5.50
2019-04-22T01:49:25.698Z,6.62
2019-04-22T01:51:59.745Z,6.03
2019-04-22T01:54:38.308Z,6.22
2019-04-22T01:56:58.416Z,6.43
2019-04-22T01:59:29.155Z,8.07
2019-04-22T02:02:02.660Z,6.43
2019-04-22T02:04:36.801Z,7.10
2019-04-22T02:07:09.393Z,5.33
2019-04-22T02:12:17.252Z,7.43
2019-04-22T02:17:22.505Z,6.87
2019-04-22T02:19:45.631Z,4.50
2019-04-22T02:22:18.001Z,6.75
2019-04-22T02:27:30.653Z,7.53
2019-04-22T02:29:55.182Z,5.90
2019-04-22T02:32:38.816Z,8.30
2019-04-22T02:40:03.511Z,7.57
2019-04-22T02:42:23.456Z,7.20
2019-04-22T02:44:57.985Z,7.10
2019-04-22T02:47:54.036Z,7.83
2019-04-22T02:50:07.334Z,7.35
2019-04-22T02:52:37.560Z,7.03
2019-04-22T02:55:15.408Z,6.57
2019-04-22T02:57:39.770Z,4.87
2019-04-22T03:00:21.772Z,6.30
2019-04-22T03:05:27.842Z,7.25
2019-04-22T03:07:58.652Z,8.03
2019-04-22T03:10:29.508Z,7.30
2019-04-22T03:12:55.930Z,9.45
2019-04-22T03:15:23.937Z,8.27
2019-04-22T03:18:15.053Z,7.17
2019-04-22T03:20:27.018Z,7.72
2019-04-22T03:23:13.026Z,6.73
2019-04-22T03:26:01.053Z,7.70
2019-04-22T03:27:52.523Z,6.07
2019-04-22T03:38:28.567Z,6.23
2019-04-22T03:43:35.147Z,6.03
2019-04-22T03:45:51.274Z,7.60
2019-04-22T03:50:42.805Z,7.28
2019-04-22T03:53:33.342Z,7.10
2019-04-22T03:55:59.314Z,6.13
2019-04-22T03:58:21.432Z,7.87
2019-04-22T04:03:23.317Z,7.25
2019-04-22T04:05:59.740Z,7.30
2019-04-22T04:08:33.796Z,6.37
2019-04-22T04:10:58.159Z,7.28
2019-04-22T04:13:34.095Z,5.63
2019-04-22T04:16:03.133Z,6.25
2019-04-22T04:18:51.334Z,5.67
2019-04-22T04:21:22.928Z,8.27
2019-04-22T04:23:50.522Z,4.87
2019-04-22T04:26:42.399Z,6.60
2019-04-22T04:28:55.325Z,7.00
2019-04-22T04:31:25.400Z,4.30
2019-04-22T04:33:51.302Z,5.12
2019-04-22T04:36:27.071Z,5.70
2019-04-22T04:38:51.747Z,5.62
2019-04-22T04:41:30.833Z,4.87
2019-04-22T04:44:11.155Z,6.67
2019-04-22T04:46:36.086Z,5.13
2019-04-22T04:54:08.578Z,8.48
2019-04-22T05:04:14.195Z,5.07
2019-04-22T05:06:43.043Z,6.80
2019-04-22T05:11:47.036Z,6.25
2019-04-22T05:14:09.382Z,7.93
2019-04-22T05:16:43.066Z,9.03
2019-04-22T05:21:40.655Z,7.00
2019-04-22T05:24:19.403Z,10.03
2019-04-22T05:31:47.908Z,7.97
2019-04-22T05:34:17.442Z,10.37
2019-04-22T05:36:47.509Z,6.40
2019-04-22T05:39:18.517Z,8.13
2019-04-22T05:41:48.425Z,8.50
2019-04-22T05:46:47.873Z,13.83
2019-04-22T05:49:25.676Z,9.10
2019-04-22T05:51:56.288Z,18.77
2019-04-22T05:54:31.282Z,16.63
2019-04-22T05:56:51.731Z,16.75
2019-04-22T05:59:36.154Z,24.83
2019-04-22T06:04:32.398Z,16.30
2019-04-22T06:07:04.931Z,13.35
2019-04-22T06:09:32.333Z,12.20
2019-04-22T06:11:58.961Z,11.30
2019-04-22T06:14:40.370Z,10.37
2019-04-22T06:17:17.955Z,8.25
2019-04-22T06:19:44.372Z,9.30
2019-04-22T06:22:25.271Z,8.88
2019-04-22T06:24:50.731Z,11.17
2019-04-22T06:27:21.958Z,11.00
2019-04-22T06:29:51.199Z,12.73
2019-04-22T06:32:26.694Z,7.43
2019-04-22T06:34:59.489Z,8.97
2019-04-22T06:37:26.236Z,9.60
2019-04-22T06:39:58.801Z,10.32
2019-04-22T06:42:28.369Z,7.60
2019-04-22T06:45:04.216Z,8.00
2019-04-22T06:47:44.065Z,10.87
2019-04-22T06:50:05.307Z,9.53
2019-04-22T06:52:30.781Z,10.20
2019-04-22T06:55:07.622Z,8.67
2019-04-22T06:57:39.456Z,6.97
2019-04-22T07:00:13.604Z,6.57
2019-04-22T07:02:57.817Z,7.07
2019-04-22T07:05:19.788Z,5.92
2019-04-22T07:07:45.004Z,6.87
2019-04-22T07:13:01.207Z,6.63
2019-04-22T07:15:35.752Z,4.97
2019-04-22T07:17:49.081Z,4.65
2019-04-22T07:20:27.245Z,6.75
2019-04-22T07:22:51.455Z,5.57
2019-04-22T07:25:23.060Z,4.67
2019-04-22T07:27:52.602Z,4.10
2019-04-22T07:30:26.403Z,3.52
2019-04-22T07:33:15.117Z,5.33
2019-04-22T07:35:36.270Z,3.67
2019-04-22T07:38:04.690Z,7.73
2019-04-22T07:40:39.571Z,4.40
2019-04-22T07:43:04.310Z,4.13
2019-04-22T07:45:40.184Z,4.27
2019-04-22T07:48:20.774Z,6.17
2019-04-22T07:50:51.284Z,5.47
2019-04-22T07:53:10.428Z,4.45
2019-04-22T07:55:39.751Z,3.73
2019-04-22T07:58:18.277Z,4.62
2019-04-22T08:00:52.726Z,4.35
2019-04-22T08:06:02.920Z,4.50
2019-04-22T08:08:27.580Z,4.43
2019-04-22T08:11:06.869Z,6.70
2019-04-22T08:13:31.239Z,6.37
2019-04-22T08:15:58.538Z,6.40
2019-04-22T08:23:39.557Z,10.18
2019-04-22T08:26:01.009Z,9.55
2019-04-22T08:28:41.080Z,6.70
2019-04-22T08:31:10.339Z,6.35
2019-04-22T08:33:39.923Z,6.13
2019-04-22T08:36:18.611Z,5.77
2019-04-22T08:38:48.401Z,7.63
2019-04-22T08:48:54.298Z,8.33
2019-04-22T08:51:28.190Z,7.63
2019-04-22T08:54:00.297Z,13.72
2019-04-22T08:59:21.832Z,10.17
2019-04-22T09:04:02.321Z,6.30
2019-04-22T09:06:49.369Z,9.37
2019-04-22T09:09:06.241Z,6.67
2019-04-22T09:11:35.922Z,5.75
2019-04-22T09:14:09.727Z,6.08
2019-04-22T09:19:12.627Z,7.53
2019-04-22T09:21:45.588Z,5.57
2019-04-22T09:24:19.653Z,5.47
2019-04-22T09:26:47.451Z,6.25
2019-04-22T09:29:20.809Z,7.23
2019-04-22T09:31:53.350Z,5.20
2019-04-22T09:34:23.500Z,3.27
2019-04-22T09:36:58.549Z,5.60
2019-04-22T09:39:32.571Z,4.47
2019-04-22T09:42:01.921Z,3.17
2019-04-22T09:44:30.848Z,3.37
2019-04-22T09:47:01.929Z,4.17
2019-04-22T09:49:36.626Z,5.03
2019-04-22T09:52:08.454Z,4.28
2019-04-22T09:54:36.988Z,5.55
2019-04-22T09:57:01.897Z,6.72
2019-04-22T09:59:35.037Z,4.78
2019-04-22T10:02:23.101Z,5.30
2019-04-22T10:04:40.476Z,8.57
2019-04-22T10:07:16.452Z,4.78
2019-04-22T10:10:03.287Z,3.90
2019-04-22T10:12:19.212Z,4.22
2019-04-22T10:14:49.264Z,3.40
2019-04-22T10:17:17.339Z,5.53
2019-04-22T10:19:47.939Z,5.53
2019-04-22T10:22:27.523Z,5.50
2019-04-22T10:24:55.370Z,3.33
2019-04-22T10:27:26.222Z,5.67
2019-04-22T10:32:27.991Z,3.62
2019-04-22T10:34:47.338Z,7.10
2019-04-22T10:37:17.630Z,4.30
2019-04-22T10:39:52.957Z,6.10
2019-04-22T10:42:17.499Z,4.17
2019-04-22T10:44:48.518Z,5.33
2019-04-22T10:47:20.010Z,5.33
2019-04-22T10:49:49.826Z,3.33
2019-04-22T10:52:19.609Z,3.45
2019-04-22T10:54:49.516Z,6.63
2019-04-22T10:57:20.104Z,4.85
2019-04-22T10:59:50.437Z,3.03
2019-04-22T11:02:21.402Z,4.57
2019-04-22T11:04:52.412Z,3.77
2019-04-22T11:07:30.838Z,4.65
2019-04-22T11:10:02.392Z,3.20
2019-04-22T11:12:28.872Z,9.35
2019-04-22T11:14:58.184Z,8.10
2019-04-22T11:17:29.305Z,4.10
2019-04-22T11:19:59.524Z,5.80
2019-04-22T11:22:33.294Z,2.93
2019-04-22T11:25:01.302Z,2.25
2019-04-22T11:27:32.551Z,2.47
2019-04-22T11:30:03.899Z,2.13
2019-04-22T11:32:33.938Z,8.93
2019-04-22T11:35:05.829Z,3.60
2019-04-22T11:37:36.840Z,3.17
2019-04-22T11:40:18.906Z,2.10
2019-04-22T11:42:40.503Z,2.23
2019-04-22T11:45:11.002Z,2.37
2019-04-22T11:47:41.428Z,2.93
2019-04-22T11:50:13.066Z,3.33
2019-04-22T11:52:43.075Z,1.80
2019-04-22T11:55:14.834Z,2.37
2019-04-22T11:57:44.958Z,2.12
2019-04-22T12:00:17.113Z,5.33
2019-04-22T12:02:47.175Z,2.20
2019-04-22T12:05:17.572Z,1.77
2019-04-22T12:07:48.903Z,4.50
2019-04-22T12:10:29.607Z,3.25
2019-04-22T12:12:51.960Z,4.27
2019-04-22T12:15:22.685Z,1.73
2019-04-22T12:17:53.087Z,1.30
2019-04-22T12:20:25.510Z,1.35
2019-04-22T12:22:56.764Z,1.60
2019-04-22T12:25:34.878Z,5.90
2019-04-22T12:27:59.208Z,3.77
2019-04-22T12:30:29.799Z,3.50
2019-04-22T12:33:02.232Z,1.80
2019-04-22T12:35:32.707Z,2.20
2019-04-22T12:38:06.220Z,8.10
2019-04-22T12:40:42.437Z,2.98
2019-04-22T12:43:08.270Z,5.12
2019-04-22T12:45:38.514Z,5.70
2019-04-22T12:48:09.947Z,4.28
2019-04-22T12:50:43.457Z,2.47
2019-04-22T12:53:16.725Z,6.97
2019-04-22T12:55:43.901Z,3.55
2019-04-22T12:58:14.062Z,3.20
2019-04-22T13:00:44.873Z,5.13
2019-04-22T13:03:16.004Z,2.70
2019-04-22T13:05:47.046Z,4.75
2019-04-22T13:08:18.025Z,3.63
2019-04-22T13:10:56.838Z,4.70
2019-04-22T13:13:20.673Z,4.63
2019-04-22T13:15:51.043Z,4.37
2019-04-22T13:18:33.323Z,2.80
2019-04-22T13:20:54.729Z,2.67
2019-04-22T13:23:25.579Z,2.52
2019-04-22T13:25:56.823Z,4.07
2019-04-22T13:28:27.439Z,1.93
2019-04-22T13:31:01.299Z,4.13
2019-04-22T13:33:28.772Z,3.47
2019-04-22T13:35:59.610Z,2.10
2019-04-22T13:38:31.063Z,2.63
2019-04-22T13:41:16.402Z,3.63
2019-04-22T13:43:32.471Z,3.77
2019-04-22T13:46:02.212Z,3.17
2019-04-22T13:48:56.223Z,2.37
2019-04-22T13:51:42.383Z,3.47
2019-04-22T13:56:23.760Z,2.60
2019-04-22T13:58:54.058Z,2.50
2019-04-22T14:01:14.490Z,5.93
2019-04-22T14:03:58.841Z,3.60
2019-04-22T14:06:29.096Z,5.90
2019-04-22T14:09:01.135Z,3.42
2019-04-22T14:11:43.315Z,3.92
2019-04-22T14:14:05.106Z,3.97
2019-04-22T14:16:35.391Z,3.27
2019-04-22T14:19:05.700Z,4.10
2019-04-22T14:21:36.810Z,2.30
2019-04-22T14:24:07.322Z,5.87
2019-04-22T14:26:52.793Z,2.40
2019-04-22T14:29:09.604Z,5.53
2019-04-22T14:31:40.537Z,4.13
2019-04-22T14:34:12.952Z,3.50
2019-04-22T14:36:43.400Z,5.75
2019-04-22T14:39:13.920Z,6.60
2019-04-22T14:42:02.654Z,4.43
2019-04-22T14:47:15.682Z,5.37
2019-04-22T14:49:46.237Z,3.13
2019-04-22T14:52:13.646Z,3.83
2019-04-22T14:54:35.002Z,3.70
2019-04-22T14:56:52.335Z,2.15
2019-04-22T14:59:22.902Z,2.03
2019-04-22T15:01:54.079Z,3.47
2019-04-22T15:04:23.804Z,4.30
2019-04-22T15:06:54.839Z,5.07
2019-04-22T15:09:25.888Z,2.17
2019-04-22T15:12:09.316Z,2.20
2019-04-22T15:14:27.652Z,6.70
2019-04-22T15:17:14.847Z,3.03
2019-04-22T15:19:54.134Z,2.00
2019-04-22T15:22:24.168Z,3.17
2019-04-22T15:24:54.488Z,2.60
2019-04-22T15:27:26.130Z,3.97
2019-04-22T15:29:56.966Z,3.15
2019-04-22T15:32:27.383Z,4.62
2019-04-22T15:34:57.386Z,5.17
2019-04-22T15:37:28.262Z,4.97
2019-04-22T15:39:58.595Z,3.40
2019-04-22T15:42:33.973Z,5.67
2019-04-22T15:45:00.038Z,6.50
2019-04-22T15:47:31.000Z,2.60
2019-04-22T15:50:00.841Z,3.30
2019-04-22T15:52:36.586Z,3.93
2019-04-22T15:55:02.930Z,3.27
2019-04-22T15:57:36.065Z,5.03
2019-04-22T16:00:18.135Z,4.72
2019-04-22T16:02:37.433Z,2.13
2019-04-22T16:05:08.595Z,4.43
2019-04-22T16:07:39.936Z,4.25
2019-04-22T16:10:10.179Z,5.67
2019-04-22T16:12:52.096Z,5.53
2019-04-22T16:15:13.254Z,3.90
2019-04-22T16:17:44.495Z,4.33
2019-04-22T16:20:15.207Z,5.00
2019-04-22T16:23:03.479Z,3.00
2019-04-22T16:26:05.226Z,5.10
2019-04-22T16:28:35.411Z,6.07
2019-04-22T16:31:05.229Z,4.17
2019-04-22T16:33:39.303Z,2.90
2019-04-22T16:36:07.131Z,4.50
2019-04-22T16:38:37.382Z,4.62
2019-04-22T16:41:08.456Z,3.97
2019-04-22T16:43:40.630Z,7.53
2019-04-22T16:46:11.690Z,3.57
2019-04-22T16:48:41.732Z,4.33
2019-04-22T16:51:11.896Z,5.90
2019-04-22T16:53:42.944Z,3.55
2019-04-22T16:56:13.060Z,3.93
2019-04-22T16:58:43.050Z,5.10
2019-04-22T17:01:52.721Z,4.47
2019-04-22T17:04:28.774Z,6.80
2019-04-22T17:06:59.549Z,4.53
2019-04-22T17:09:29.852Z,3.52
2019-04-22T17:11:59.547Z,3.80
2019-04-22T17:14:37.273Z,4.23
2019-04-22T17:17:00.567Z,6.12
2019-04-22T17:19:31.137Z,3.67
2019-04-22T17:22:01.672Z,4.20
2019-04-22T17:24:32.085Z,6.03
2019-04-22T17:27:02.284Z,5.37
2019-04-22T17:29:32.441Z,5.13
2019-04-22T17:32:06.354Z,4.30
2019-04-22T17:34:33.906Z,4.15
2019-04-22T17:37:11.389Z,5.40
2019-04-22T17:39:50.303Z,4.30
2019-04-22T17:42:27.869Z,6.93
2019-04-22T17:45:24.323Z,9.23
2019-04-22T17:48:11.888Z,6.55
2019-04-22T17:50:48.449Z,3.87
2019-04-22T17:53:21.532Z,2.80
2019-04-22T17:55:48.910Z,5.90
2019-04-22T18:00:50.448Z,3.80
2019-04-22T18:03:08.501Z,6.67
2019-04-22T18:05:35.919Z,4.73
2019-04-22T18:08:20.438Z,5.70
2019-04-22T18:10:56.304Z,3.72
2019-04-22T18:13:25.210Z,4.40
2019-04-22T18:16:00.539Z,4.62
2019-04-22T18:18:33.487Z,4.80
2019-04-22T18:20:52.155Z,6.17
2019-04-22T18:23:14.710Z,4.77
2019-04-22T18:26:01.935Z,6.23
2019-04-22T18:28:42.198Z,8.08
2019-04-22T18:31:03.158Z,6.10
2019-04-22T18:33:33.317Z,5.40
2019-04-22T18:36:05.239Z,7.37
2019-04-22T18:38:46.607Z,6.27
2019-04-22T18:41:09.711Z,6.75
2019-04-22T18:43:48.945Z,5.47
2019-04-22T18:46:15.713Z,5.72
2019-04-22T18:48:51.885Z,5.67
2019-04-22T18:51:25.029Z,3.70
2019-04-22T18:54:00.399Z,5.72
2019-04-22T18:56:33.921Z,6.67
2019-04-22T18:58:55.907Z,8.37
2019-04-22T19:01:19.890Z,13.73
2019-04-22T19:04:01.436Z,16.93
2019-04-22T19:09:17.053Z,8.53
2019-04-22T19:11:52.087Z,4.15
2019-04-22T19:14:17.875Z,6.43
2019-04-22T19:16:53.983Z,14.87
2019-04-22T19:21:56.106Z,9.70
2019-04-22T19:24:19.720Z,7.53
2019-04-22T19:26:59.294Z,7.23
2019-04-22T19:29:26.012Z,11.70
2019-04-22T19:31:56.906Z,14.80
2019-04-22T19:34:30.032Z,19.47
2019-04-22T19:37:02.108Z,20.03
2019-04-22T19:39:27.271Z,18.60
2019-04-22T19:42:09.533Z,11.37
2019-04-22T19:44:39.393Z,8.23
2019-04-22T19:47:28.487Z,13.87
2019-04-22T19:49:48.409Z,19.87
2019-04-22T19:54:42.910Z,10.50
2019-04-22T19:57:11.657Z,9.57
2019-04-22T19:59:45.230Z,8.87
2019-04-22T20:02:35.876Z,8.50
2019-04-22T20:05:20.277Z,6.67
2019-04-22T20:07:41.863Z,8.15
2019-04-22T20:10:20.766Z,6.23
2019-04-22T20:12:50.188Z,6.00
2019-04-22T20:15:19.463Z,7.77
2019-04-22T20:18:14.636Z,11.63
2019-04-22T20:20:34.384Z,8.27
2019-04-22T20:22:57.595Z,6.30
2019-04-22T20:25:21.209Z,5.20
2019-04-22T20:28:01.173Z,6.33
2019-04-22T20:30:34.798Z,7.10
2019-04-22T20:33:03.390Z,5.73
2019-04-22T20:35:40.103Z,5.87
2019-04-22T20:38:10.815Z,5.67
2019-04-22T20:40:39.980Z,7.60
2019-04-22T20:43:15.113Z,9.60
2019-04-22T20:45:47.938Z,7.62
2019-04-22T20:48:06.011Z,7.07
2019-04-22T20:50:51.595Z,7.55
2019-04-22T20:53:24.070Z,6.90
2019-04-22T20:55:55.249Z,8.60
2019-04-22T20:58:25.711Z,5.23
2019-04-22T21:00:46.571Z,7.93
2019-04-22T21:03:17.444Z,7.17
2019-04-22T21:05:46.629Z,8.10
2019-04-22T21:08:30.548Z,8.50
2019-04-22T21:10:52.073Z,6.27
2019-04-22T21:13:22.983Z,6.37
2019-04-22T21:16:04.575Z,6.00
2019-04-22T21:18:30.627Z,7.07
2019-04-22T21:21:07.225Z,9.70
2019-04-22T21:23:31.190Z,8.43
2019-04-22T21:26:07.987Z,7.70
2019-04-22T21:28:41.497Z,5.85
2019-04-22T21:31:14.841Z,8.93
2019-04-22T21:33:42.774Z,7.73
2019-04-22T21:36:22.185Z,8.67
2019-04-22T21:38:43.598Z,10.03
2019-04-22T21:41:17.465Z,10.57
2019-04-22T21:43:52.683Z,9.67
2019-04-22T21:46:22.961Z,13.20
2019-04-22T21:48:53.072Z,10.40
2019-04-22T21:51:31.665Z,10.07
2019-04-22T21:54:06.780Z,10.30
2019-04-22T21:56:47.356Z,11.50
2019-04-22T21:59:07.770Z,10.57
2019-04-22T22:01:49.745Z,10.98
2019-04-22T22:04:17.573Z,9.30
2019-04-22T22:06:39.658Z,9.53
2019-04-22T22:09:23.176Z,9.30
2019-04-22T22:11:49.528Z,12.17
2019-04-22T22:14:18.028Z,10.80
2019-04-22T22:16:48.141Z,8.23
2019-04-22T22:19:23.974Z,10.87
2019-04-22T22:22:03.821Z,11.22
2019-04-22T22:24:28.912Z,10.48
2019-04-22T22:26:55.380Z,9.87
2019-04-22T22:29:48.021Z,15.77
2019-04-22T22:32:04.857Z,10.25
2019-04-22T22:34:36.173Z,8.37
2019-04-22T22:37:00.282Z,9.93
2019-04-22T22:39:25.807Z,9.40
2019-04-22T22:41:47.938Z,12.47
2019-04-22T22:44:24.988Z,11.17
2019-04-22T22:47:08.693Z,11.50
2019-04-22T22:49:42.466Z,9.33
2019-04-22T22:52:40.834Z,10.33
2019-04-22T22:54:50.691Z,10.67
2019-04-22T22:57:22.543Z,10.68
2019-04-22T22:59:53.053Z,7.60
2019-04-22T23:02:18.288Z,10.80
2019-04-22T23:04:51.183Z,8.17
2019-04-22T23:09:53.669Z,10.00
2019-04-22T23:12:36.187Z,9.33
2019-04-22T23:14:55.236Z,9.00
2019-04-22T23:17:13.994Z,13.00
2019-04-22T23:19:44.761Z,10.75
2019-04-22T23:22:20.576Z,9.23
2019-04-22T23:24:59.949Z,13.70
2019-04-22T23:27:46.382Z,7.92
2019-04-22T23:30:27.498Z,9.93
2019-04-22T23:33:18.841Z,9.07
2019-04-22T23:35:52.882Z,12.93
2019-04-22T23:38:34.018Z,8.05
2019-04-22T23:41:05.358Z,8.30
2019-04-22T23:43:42.375Z,7.10
2019-04-22T23:46:06.953Z,7.12
2019-04-22T23:48:32.855Z,9.53
2019-04-22T23:51:13.772Z,7.97
2019-04-22T23:56:15.441Z,12.20
